Time;durP1;ratioP1;P1;durP2;ratioP2;P2;SDS_P1;SDS_P2;PMS_P1;PMS_P2;Temp;Humidity;BMP_temperature;BMP_pressure;BME280_temperature;BME280_humidity;BME280_pressure;Samples;Min_cycle;Max_cycle;Signal;HPM_P1;HPM_P2
2022/03/16 00:02:10;;;;;;;14.70;8.43;;;6.40;99.90;;;;;;5055692;28;20540;-80
2022/03/16 00:04:36;;;;;;;17.90;9.03;;;6.30;99.90;;;;;;5054503;28;20045;-78
2022/03/16 00:07:04;;;;;;;16.53;8.93;;;6.40;99.90;;;;;;5055609;28;20075;-79
2022/03/16 00:09:31;;;;;;;13.17;8.50;;;6.40;99.90;;;;;;5055500;28;20513;-80
2022/03/16 00:11:58;;;;;;;17.57;10.00;;;6.60;99.90;;;;;;5055370;28;20110;-81
2022/03/16 00:14:24;;;;;;;15.40;9.00;;;6.60;99.90;;;;;;5056041;28;20049;-80
2022/03/16 00:16:51;;;;;;;17.57;8.60;;;6.60;99.90;;;;;;5055725;28;20045;-80
2022/03/16 00:19:17;;;;;;;18.20;10.87;;;6.70;99.90;;;;;;5055407;28;20106;-80
2022/03/16 00:21:44;;;;;;;13.70;9.17;;;6.60;99.90;;;;;;5055561;28;20045;-80
2022/03/16 00:24:12;;;;;;;12.20;7.50;;;6.60;99.90;;;;;;5055154;28;20045;-80
2022/03/16 00:26:39;;;;;;;14.60;8.73;;;6.60;99.90;;;;;;5055341;28;20041;-81
2022/03/16 00:29:06;;;;;;;13.87;8.73;;;6.60;99.90;;;;;;5055566;28;20071;-80
2022/03/16 00:31:33;;;;;;;13.87;7.90;;;6.70;99.90;;;;;;5055501;28;20103;-80
2022/03/16 00:34:01;;;;;;;15.20;8.13;;;6.70;99.90;;;;;;5057072;28;20049;-78
2022/03/16 00:36:27;;;;;;;14.60;7.77;;;6.70;99.90;;;;;;5056482;28;20584;-78
2022/03/16 00:38:54;;;;;;;12.87;9.10;;;6.70;99.90;;;;;;5056956;28;20053;-80
2022/03/16 00:41:22;;;;;;;13.90;8.07;;;6.70;99.90;;;;;;5055820;28;20103;-79
2022/03/16 00:43:49;;;;;;;16.47;8.57;;;6.70;99.90;;;;;;5054987;28;20128;-79
2022/03/16 00:46:15;;;;;;;14.20;7.70;;;6.70;99.90;;;;;;5055153;28;20044;-80
2022/03/16 00:48:42;;;;;;;17.97;9.50;;;6.80;99.90;;;;;;5054361;28;20118;-80
2022/03/16 00:51:09;;;;;;;10.17;7.10;;;6.70;99.90;;;;;;5055298;28;20114;-79
2022/03/16 00:53:38;;;;;;;15.83;9.67;;;6.70;99.90;;;;;;5055330;28;20519;-80
2022/03/16 00:56:06;;;;;;;13.67;9.83;;;6.70;99.90;;;;;;5054569;28;20479;-80
2022/03/16 00:58:34;;;;;;;20.30;9.67;;;6.60;99.90;;;;;;5054568;28;20483;-80
2022/03/16 01:01:01;;;;;;;12.17;8.30;;;6.60;99.90;;;;;;5054592;28;20041;-80
2022/03/16 01:03:29;;;;;;;14.50;8.47;;;6.50;99.90;;;;;;5054308;28;20049;-78
2022/03/16 01:05:55;;;;;;;15.53;8.00;;;6.50;99.90;;;;;;5053944;28;20045;-81
2022/03/16 01:08:22;;;;;;;20.77;9.03;;;6.50;99.90;;;;;;5054249;28;20045;-80
2022/03/16 01:10:48;;;;;;;13.57;8.50;;;6.50;99.90;;;;;;5048153;28;20075;-80
2022/03/16 01:13:15;;;;;;;11.13;7.50;;;6.30;99.90;;;;;;5046721;28;20052;-79
2022/03/16 01:15:43;;;;;;;17.93;9.30;;;6.20;99.90;;;;;;5045919;28;20106;-81
2022/03/16 01:18:10;;;;;;;14.03;8.73;;;6.20;99.90;;;;;;5045755;28;20041;-79
2022/03/16 01:20:37;;;;;;;15.60;8.40;;;6.10;99.90;;;;;;5048267;28;20075;-80
2022/03/16 01:23:03;;;;;;;12.50;8.37;;;6.00;99.90;;;;;;5046228;28;20487;-80
2022/03/16 01:25:30;;;;;;;16.10;8.87;;;5.90;99.90;;;;;;5045943;28;20053;-80
2022/03/16 01:27:57;;;;;;;15.10;9.63;;;5.90;99.90;;;;;;5053171;28;20053;-79
2022/03/16 01:30:24;;;;;;;13.67;8.83;;;5.80;99.90;;;;;;5054159;28;20037;-80
2022/03/16 01:32:51;;;;;;;14.83;8.30;;;5.70;99.90;;;;;;5053145;28;20052;-80
2022/03/16 01:35:19;;;;;;;14.03;8.67;;;5.70;99.90;;;;;;5053260;28;20086;-79
2022/03/16 01:37:46;;;;;;;14.27;9.07;;;5.70;99.90;;;;;;5053044;28;20132;-79
2022/03/16 01:40:13;;;;;;;19.37;9.73;;;5.70;99.90;;;;;;5054208;28;20095;-79
2022/03/16 01:42:40;;;;;;;13.57;8.40;;;5.70;99.90;;;;;;5054339;28;20049;-79
2022/03/16 01:45:09;;;;;;;13.00;8.63;;;5.60;99.90;;;;;;5053704;28;20056;-78
2022/03/16 01:47:35;;;;;;;15.00;8.67;;;5.60;99.90;;;;;;5053629;28;20123;-80
2022/03/16 01:50:04;;;;;;;14.73;8.10;;;5.50;99.90;;;;;;5054100;28;20044;-81
2022/03/16 01:52:32;;;;;;;14.97;10.23;;;5.50;99.90;;;;;;5060822;28;20049;-79
2022/03/16 01:55:02;;;;;;;13.07;8.53;;;5.40;99.90;;;;;;5065234;28;20052;-79
2022/03/16 01:57:31;;;;;;;15.47;9.17;;;5.30;99.90;;;;;;5054983;28;20063;-79
2022/03/16 01:59:57;;;;;;;16.87;9.07;;;5.30;99.90;;;;;;5054241;28;20103;-79
2022/03/16 02:02:24;;;;;;;13.70;9.10;;;5.20;99.90;;;;;;5053669;28;20071;-81
2022/03/16 02:04:51;;;;;;;17.53;8.83;;;5.10;99.90;;;;;;5054739;28;20053;-79
2022/03/16 02:07:19;;;;;;;17.13;8.80;;;5.00;99.90;;;;;;5054055;28;20049;-79
2022/03/16 02:09:45;;;;;;;13.97;9.37;;;5.00;99.90;;;;;;5053575;28;20475;-79
2022/03/16 02:12:13;;;;;;;17.13;9.13;;;4.90;99.90;;;;;;5053478;28;20438;-79
2022/03/16 02:14:40;;;;;;;15.40;8.70;;;4.80;99.90;;;;;;5053843;28;20067;-78
2022/03/16 02:17:06;;;;;;;21.60;9.80;;;4.90;99.90;;;;;;5053669;28;20044;-79
2022/03/16 02:19:34;;;;;;;17.83;9.00;;;4.80;99.90;;;;;;5053315;28;20048;-79
2022/03/16 02:22:03;;;;;;;16.53;9.20;;;4.70;99.90;;;;;;5052530;28;20080;-79
2022/03/16 02:24:32;;;;;;;13.23;9.00;;;4.60;99.90;;;;;;5037313;28;20044;-78
2022/03/16 02:26:59;;;;;;;13.93;9.40;;;4.60;99.90;;;;;;5052943;28;20049;-79
2022/03/16 02:29:25;;;;;;;13.43;8.53;;;4.60;99.90;;;;;;5052302;28;20049;-79
2022/03/16 02:31:52;;;;;;;14.47;8.50;;;4.50;99.90;;;;;;5052971;28;20068;-79
2022/03/16 02:34:18;;;;;;;15.27;9.07;;;4.40;99.90;;;;;;5052762;28;20044;-79
2022/03/16 02:36:45;;;;;;;15.40;7.90;;;4.40;99.90;;;;;;5051982;28;20549;-80
2022/03/16 02:39:12;;;;;;;12.47;8.00;;;4.40;99.90;;;;;;5052860;28;20048;-79
2022/03/16 02:41:40;;;;;;;13.70;8.50;;;4.40;99.90;;;;;;5052826;28;20553;-79
2022/03/16 02:44:06;;;;;;;17.73;8.80;;;4.30;99.90;;;;;;5052825;28;20555;-80
2022/03/16 02:46:33;;;;;;;12.27;7.93;;;4.20;99.90;;;;;;5052456;28;20049;-80
2022/03/16 02:49:01;;;;;;;15.00;8.90;;;4.20;99.90;;;;;;5052609;28;20154;-79
2022/03/16 02:51:28;;;;;;;13.40;8.20;;;4.10;99.90;;;;;;5052908;28;20499;-80
2022/03/16 02:53:55;;;;;;;14.93;7.57;;;4.20;99.90;;;;;;5052459;28;20045;-80
2022/03/16 02:56:21;;;;;;;14.10;8.37;;;4.10;99.90;;;;;;5052688;28;20049;-79
2022/03/16 02:58:50;;;;;;;13.67;8.33;;;4.10;99.90;;;;;;5052340;28;20045;-79
2022/03/16 03:01:16;;;;;;;10.13;8.47;;;4.10;99.90;;;;;;5051974;28;20140;-79
2022/03/16 03:03:43;;;;;;;21.70;7.50;;;4.00;99.90;;;;;;5052532;28;20045;-79
2022/03/16 03:06:10;;;;;;;12.97;8.50;;;4.00;99.90;;;;;;5053422;28;20049;-79
2022/03/16 03:08:36;;;;;;;14.73;7.83;;;3.90;99.90;;;;;;5052573;28;20060;-78
2022/03/16 03:11:03;;;;;;;15.37;8.67;;;3.80;99.90;;;;;;5053049;28;20446;-79
2022/03/16 03:13:31;;;;;;;15.00;9.00;;;3.80;99.90;;;;;;5053140;28;20102;-78
2022/03/16 03:15:59;;;;;;;14.13;7.87;;;3.70;99.90;;;;;;5051882;28;20098;-79
2022/03/16 03:18:25;;;;;;;14.17;8.33;;;3.70;99.90;;;;;;5051938;28;20037;-78
2022/03/16 03:20:52;;;;;;;14.03;9.60;;;3.60;99.90;;;;;;5052247;28;20095;-79
2022/03/16 03:23:19;;;;;;;27.27;16.57;;;3.50;99.90;;;;;;5052612;28;20114;-78
2022/03/16 03:25:45;;;;;;;12.60;8.53;;;3.50;99.90;;;;;;5051453;28;20391;-78
2022/03/16 03:28:12;;;;;;;14.63;7.23;;;3.50;99.90;;;;;;5053018;28;20107;-78
2022/03/16 03:30:38;;;;;;;12.07;8.30;;;3.40;99.90;;;;;;5051920;28;20068;-78
2022/03/16 03:33:06;;;;;;;9.03;6.87;;;3.40;99.90;;;;;;5053066;28;20045;-79
2022/03/16 03:35:33;;;;;;;15.23;9.23;;;3.30;99.90;;;;;;5053054;28;20064;-78
2022/03/16 03:38:00;;;;;;;18.13;8.67;;;3.30;99.90;;;;;;5052386;28;20049;-79
2022/03/16 03:40:26;;;;;;;14.07;8.30;;;3.20;99.90;;;;;;5055254;28;20044;-79
2022/03/16 03:42:53;;;;;;;14.07;8.40;;;3.20;99.90;;;;;;5056361;28;20052;-79
2022/03/16 03:45:20;;;;;;;13.50;8.87;;;3.20;99.90;;;;;;5037410;28;20045;-79
2022/03/16 03:47:46;;;;;;;14.37;8.13;;;3.10;99.90;;;;;;5055207;28;20061;-79
2022/03/16 03:50:16;;;;;;;10.77;7.63;;;3.00;99.90;;;;;;5056040;28;20099;-79
2022/03/16 03:52:42;;;;;;;12.03;7.03;;;3.00;99.90;;;;;;5055650;28;20545;-79
2022/03/16 03:55:09;;;;;;;19.60;9.53;;;3.00;99.90;;;;;;5055992;28;20102;-79
2022/03/16 03:57:36;;;;;;;13.50;7.33;;;2.90;99.90;;;;;;5054971;28;20041;-79
2022/03/16 04:00:04;;;;;;;21.80;9.70;;;2.90;99.90;;;;;;5055417;28;20099;-79
2022/03/16 04:02:31;;;;;;;13.50;8.07;;;2.80;99.90;;;;;;5055569;28;20544;-78
2022/03/16 04:04:58;;;;;;;16.30;9.67;;;2.80;99.90;;;;;;5055998;28;20049;-78
2022/03/16 04:07:25;;;;;;;15.10;8.43;;;2.80;99.90;;;;;;5055841;28;20475;-79
2022/03/16 04:09:53;;;;;;;16.80;9.00;;;2.80;99.90;;;;;;5054740;28;20037;-78
2022/03/16 04:12:20;;;;;;;21.70;9.00;;;2.70;99.90;;;;;;5055943;28;20051;-79
2022/03/16 04:14:47;;;;;;;16.70;10.33;;;2.60;99.90;;;;;;5055538;28;20056;-78
2022/03/16 04:17:14;;;;;;;14.40;9.40;;;2.70;99.90;;;;;;5055734;28;20045;-79
2022/03/16 04:19:40;;;;;;;15.47;10.77;;;2.70;99.90;;;;;;5055385;28;20045;-79
2022/03/16 04:22:07;;;;;;;17.73;9.67;;;2.60;99.90;;;;;;5054453;28;20479;-78
2022/03/16 04:24:35;;;;;;;16.00;10.07;;;2.60;99.90;;;;;;5055318;28;20052;-79
2022/03/16 04:27:02;;;;;;;17.67;10.53;;;2.60;99.90;;;;;;5054653;28;20395;-79
2022/03/16 04:29:28;;;;;;;16.00;9.00;;;2.70;99.90;;;;;;5054682;28;20314;-78
2022/03/16 04:31:55;;;;;;;53.93;30.93;;;2.70;99.90;;;;;;5055651;28;20044;-79
2022/03/16 04:34:21;;;;;;;17.90;10.80;;;2.60;99.90;;;;;;5056091;28;20041;-79
2022/03/16 04:36:48;;;;;;;21.90;11.17;;;2.50;99.90;;;;;;5057072;28;20049;-79
2022/03/16 04:39:16;;;;;;;15.50;8.80;;;2.50;99.90;;;;;;5056219;28;20045;-80
2022/03/16 04:41:44;;;;;;;19.93;9.27;;;2.50;99.90;;;;;;5055167;28;20087;-77
2022/03/16 04:44:11;;;;;;;13.10;10.07;;;2.40;99.90;;;;;;5054616;28;20041;-76
2022/03/16 04:46:41;;;;;;;22.67;11.53;;;2.40;99.90;;;;;;5048675;28;20046;-77
2022/03/16 04:49:07;;;;;;;14.27;9.07;;;2.40;99.90;;;;;;5050367;28;20040;-80
2022/03/16 04:51:34;;;;;;;18.53;11.13;;;2.30;99.90;;;;;;5048282;28;20103;-77
2022/03/16 04:54:03;;;;;;;20.87;10.10;;;2.30;99.90;;;;;;5065282;28;20056;-79
2022/03/16 04:56:30;;;;;;;15.17;9.33;;;2.30;99.90;;;;;;5061530;28;20057;-76
2022/03/16 04:58:58;;;;;;;17.43;10.00;;;2.30;99.90;;;;;;5054553;28;20045;-77
2022/03/16 05:01:24;;;;;;;16.67;10.37;;;2.40;99.90;;;;;;5054077;28;20560;-77
2022/03/16 05:03:51;;;;;;;19.30;10.77;;;2.40;99.90;;;;;;5054506;28;20044;-76
2022/03/16 05:06:18;;;;;;;21.80;13.53;;;2.30;99.90;;;;;;5054118;28;20114;-78
2022/03/16 05:08:45;;;;;;;19.20;10.60;;;2.20;99.90;;;;;;5054451;28;20059;-77
2022/03/16 05:11:13;;;;;;;13.63;8.20;;;2.20;99.90;;;;;;5054647;28;20448;-76
2022/03/16 05:13:39;;;;;;;17.03;9.63;;;2.20;99.90;;;;;;5054905;28;20096;-77
2022/03/16 05:16:07;;;;;;;14.60;8.57;;;2.30;99.90;;;;;;5054311;28;20102;-76
2022/03/16 05:18:35;;;;;;;23.10;11.10;;;2.20;99.90;;;;;;5054745;28;20048;-83
2022/03/16 05:21:03;;;;;;;19.23;9.97;;;2.20;99.90;;;;;;5054113;28;20072;-80
2022/03/16 05:23:30;;;;;;;21.37;11.47;;;2.10;99.90;;;;;;5054199;28;20053;-82
2022/03/16 05:25:56;;;;;;;25.73;10.63;;;2.10;99.90;;;;;;5053754;28;21925;-76
2022/03/16 05:28:23;;;;;;;16.80;10.60;;;2.00;99.90;;;;;;5054044;28;20544;-81
2022/03/16 05:30:50;;;;;;;23.00;11.37;;;2.00;99.90;;;;;;5053866;28;20049;-84
2022/03/16 05:33:18;;;;;;;19.10;11.00;;;2.10;99.90;;;;;;5054262;28;20083;-80
2022/03/16 05:35:45;;;;;;;26.83;12.23;;;2.10;99.90;;;;;;5053210;28;20095;-78
2022/03/16 05:38:13;;;;;;;17.83;12.50;;;2.20;99.90;;;;;;5053481;28;20045;-78
2022/03/16 05:40:40;;;;;;;22.10;13.17;;;2.30;99.90;;;;;;5053592;28;20132;-78
2022/03/16 05:43:08;;;;;;;22.83;13.30;;;2.30;99.90;;;;;;5052797;28;20044;-79
2022/03/16 05:45:35;;;;;;;24.87;12.90;;;2.30;99.90;;;;;;5053496;28;20506;-78
2022/03/16 05:48:02;;;;;;;19.03;10.87;;;2.40;99.90;;;;;;5054682;28;20102;-79
2022/03/16 05:50:30;;;;;;;26.13;12.73;;;2.50;99.90;;;;;;5054465;28;20115;-78
2022/03/16 05:52:57;;;;;;;26.60;11.30;;;2.50;99.90;;;;;;5058620;28;20037;-80
2022/03/16 05:55:23;;;;;;;30.97;13.47;;;2.60;99.90;;;;;;5054149;28;20049;-76
2022/03/16 05:57:50;;;;;;;24.43;14.10;;;2.80;99.90;;;;;;5052328;28;20568;-77
2022/03/16 06:00:17;;;;;;;22.57;13.27;;;3.00;99.90;;;;;;5053011;28;20053;-79
2022/03/16 06:02:47;;;;;;;26.73;14.47;;;3.20;99.90;;;;;;5051515;28;20449;-79
2022/03/16 06:05:15;;;;;;;25.40;13.50;;;3.40;99.90;;;;;;5053244;28;20128;-79
2022/03/16 06:07:43;;;;;;;27.20;14.10;;;3.70;99.90;;;;;;5052225;28;20085;-78
2022/03/16 06:10:12;;;;;;;34.37;17.10;;;4.00;99.90;;;;;;5052916;28;20048;-76
2022/03/16 06:12:50;;;;;;;47.10;24.57;;;4.30;99.90;;;;;;5052203;28;20045;-79
2022/03/16 06:15:17;;;;;;;31.47;15.57;;;4.50;99.90;;;;;;5041502;28;20049;-79
2022/03/16 06:17:44;;;;;;;25.50;15.37;;;4.70;99.90;;;;;;5053525;28;20053;-81
2022/03/16 06:20:11;;;;;;;19.63;12.90;;;4.80;99.90;;;;;;5036915;28;20499;-79
2022/03/16 06:22:38;;;;;;;20.80;11.23;;;5.00;99.90;;;;;;5033492;28;20041;-75
2022/03/16 06:25:07;;;;;;;21.73;12.10;;;5.30;99.90;;;;;;5033560;28;20049;-75
2022/03/16 06:27:34;;;;;;;18.30;11.30;;;5.60;99.90;;;;;;5036734;28;20432;-76
2022/03/16 06:30:01;;;;;;;24.63;12.73;;;6.00;99.90;;;;;;5054595;28;20454;-82
2022/03/16 06:32:28;;;;;;;18.73;11.07;;;6.20;99.90;;;;;;5040981;28;20049;-82
2022/03/16 06:34:54;;;;;;;27.03;12.77;;;6.50;99.90;;;;;;5046412;28;20059;-78
2022/03/16 06:37:21;;;;;;;22.90;12.00;;;6.90;99.90;;;;;;5033474;28;20049;-77
2022/03/16 06:39:48;;;;;;;25.30;11.77;;;7.10;99.90;;;;;;5033281;28;20491;-78
2022/03/16 06:42:17;;;;;;;21.33;14.20;;;7.40;99.90;;;;;;5033580;28;20049;-76
2022/03/16 06:44:43;;;;;;;21.17;12.43;;;7.60;99.90;;;;;;5033359;28;20045;-76
2022/03/16 06:47:10;;;;;;;29.97;15.80;;;7.80;99.90;;;;;;5033218;28;20455;-76
2022/03/16 06:49:37;;;;;;;33.40;16.20;;;8.00;99.90;;;;;;5041773;28;20124;-80
2022/03/16 06:52:05;;;;;;;26.47;14.80;;;8.30;99.90;;;;;;5053793;28;20098;-75
2022/03/16 06:54:31;;;;;;;22.70;11.90;;;8.50;99.90;;;;;;5053137;28;20068;-76
2022/03/16 06:56:58;;;;;;;24.13;11.90;;;8.70;99.90;;;;;;5052943;28;20561;-75
2022/03/16 06:59:26;;;;;;;24.53;12.33;;;8.80;99.90;;;;;;5051181;28;20050;-79
2022/03/16 07:01:52;;;;;;;22.60;11.52;;;9.10;99.90;;;;;;5052322;28;20045;-80
2022/03/16 07:04:19;;;;;;;21.70;12.77;;;9.20;99.90;;;;;;5053287;28;20099;-77
2022/03/16 07:06:50;;;;;;;26.67;13.52;;;9.40;99.90;;;;;;5054274;28;20095;-77
2022/03/16 07:09:17;;;;;;;24.55;14.35;;;9.50;99.90;;;;;;5054070;28;20045;-78
2022/03/16 07:11:43;;;;;;;26.52;13.40;;;9.50;99.90;;;;;;5053925;28;20099;-78
2022/03/16 07:16:56;;;;;;;26.92;13.18;;;9.80;99.90;;;;;;5057317;28;20063;-85
2022/03/16 07:19:22;;;;;;;20.73;11.80;;;10.00;99.90;;;;;;5057601;28;20049;-77
2022/03/16 07:21:49;;;;;;;21.40;12.75;;;10.30;99.90;;;;;;5057323;28;20037;-83
2022/03/16 07:24:16;;;;;;;20.98;11.85;;;10.60;99.90;;;;;;5057345;28;20402;-83
2022/03/16 07:26:43;;;;;;;20.70;11.20;;;10.80;99.90;;;;;;5057160;28;20056;-76
2022/03/16 07:29:10;;;;;;;19.05;12.30;;;10.70;99.90;;;;;;5055725;28;20128;-82
2022/03/16 07:31:37;;;;;;;16.80;12.52;;;10.80;99.90;;;;;;5036740;28;20049;-85
2022/03/16 07:34:05;;;;;;;22.33;12.38;;;10.80;99.90;;;;;;5031465;28;20095;-78
2022/03/16 07:36:33;;;;;;;51.33;31.90;;;10.60;99.90;;;;;;5043601;28;20569;-74
2022/03/16 07:39:00;;;;;;;91.13;55.97;;;10.60;99.90;;;;;;5037344;28;20053;-79
2022/03/16 07:41:27;;;;;;;29.98;18.80;;;10.40;99.90;;;;;;5057097;28;20044;-76
2022/03/16 07:43:53;;;;;;;20.67;11.88;;;10.00;99.90;;;;;;5057316;28;20103;-78
2022/03/16 07:46:20;;;;;;;19.42;11.68;;;9.70;99.90;;;;;;5056359;28;20118;-78
2022/03/16 07:48:46;;;;;;;21.77;11.40;;;9.40;99.90;;;;;;5056560;28;20096;-76
2022/03/16 07:51:14;;;;;;;21.75;12.20;;;9.50;99.90;;;;;;5055871;28;20556;-76
2022/03/16 07:53:41;;;;;;;26.00;14.05;;;9.90;99.90;;;;;;5038974;28;20103;-78
2022/03/16 07:56:08;;;;;;;22.15;12.20;;;10.30;99.90;;;;;;5040630;28;20111;-76
2022/03/16 07:58:35;;;;;;;27.15;12.07;;;10.90;99.90;;;;;;5055221;28;20049;-76
2022/03/16 08:01:02;;;;;;;17.48;10.32;;;11.10;99.90;;;;;;5057200;28;20052;-84
2022/03/16 08:03:28;;;;;;;27.27;13.52;;;11.60;99.90;;;;;;5056129;28;20045;-75
2022/03/16 08:05:55;;;;;;;21.13;12.15;;;11.90;99.90;;;;;;5056198;28;20048;-74
2022/03/16 08:08:24;;;;;;;22.92;12.00;;;11.70;99.90;;;;;;5057822;28;20041;-79
2022/03/16 08:10:50;;;;;;;21.05;11.90;;;11.50;99.90;;;;;;5054594;28;20432;-78
2022/03/16 08:13:17;;;;;;;21.15;12.50;;;11.90;99.90;;;;;;5055913;28;20095;-78
2022/03/16 08:15:44;;;;;;;20.90;12.52;;;11.90;99.90;;;;;;5055512;28;20045;-79
2022/03/16 08:18:11;;;;;;;18.13;12.30;;;11.70;99.90;;;;;;5054944;28;20053;-78
2022/03/16 08:20:37;;;;;;;23.27;12.80;;;11.30;99.90;;;;;;5055092;28;20175;-78
2022/03/16 08:23:04;;;;;;;35.65;15.02;;;10.80;99.90;;;;;;5054696;28;20048;-77
2022/03/16 08:25:32;;;;;;;82.65;42.33;;;10.40;99.90;;;;;;5053752;28;20056;-78
2022/03/16 08:28:01;;;;;;;45.15;23.42;;;10.20;99.90;;;;;;5054772;28;20491;-80
2022/03/16 08:30:28;;;;;;;25.60;13.85;;;9.80;99.90;;;;;;5055559;28;20044;-79
2022/03/16 08:32:54;;;;;;;21.55;11.55;;;9.60;99.90;;;;;;5054818;28;20491;-78
2022/03/16 08:35:22;;;;;;;24.85;13.88;;;9.50;99.90;;;;;;5054393;28;20060;-78
2022/03/16 08:37:49;;;;;;;28.05;14.43;;;9.40;99.90;;;;;;5050856;28;20064;-77
2022/03/16 08:40:16;;;;;;;29.80;15.55;;;9.60;99.90;;;;;;5046721;28;20536;-76
2022/03/16 08:42:44;;;;;;;26.88;13.88;;;9.60;99.90;;;;;;5043025;28;20049;-76
2022/03/16 08:45:11;;;;;;;20.70;11.75;;;9.50;99.90;;;;;;5054471;28;20044;-77
2022/03/16 08:47:38;;;;;;;25.35;11.98;;;9.50;99.90;;;;;;5054776;28;20578;-76
2022/03/16 08:50:06;;;;;;;24.73;11.93;;;9.40;99.90;;;;;;5055262;28;20123;-77
2022/03/16 08:52:33;;;;;;;19.08;10.98;;;9.30;99.90;;;;;;5054739;28;20490;-75
2022/03/16 08:55:00;;;;;;;24.45;11.55;;;9.20;99.90;;;;;;5054918;28;20044;-76
2022/03/16 08:57:28;;;;;;;19.67;11.50;;;9.10;99.90;;;;;;5055045;28;20060;-76
2022/03/16 08:59:56;;;;;;;20.27;9.80;;;9.20;99.90;;;;;;5054953;28;20463;-76
2022/03/16 09:02:23;;;;;;;16.15;8.48;;;9.30;99.90;;;;;;5054885;28;20483;-76
2022/03/16 09:04:52;;;;;;;18.05;8.93;;;9.60;99.90;;;;;;5054870;28;20096;-75
2022/03/16 09:07:18;;;;;;;16.80;9.15;;;9.60;99.90;;;;;;5054868;28;20096;-76
2022/03/16 09:09:45;;;;;;;21.95;8.27;;;9.80;99.90;;;;;;5054726;28;20075;-77
2022/03/16 09:12:13;;;;;;;15.00;7.72;;;10.00;99.90;;;;;;5054723;28;20110;-77
2022/03/16 09:14:40;;;;;;;12.00;7.03;;;10.10;99.90;;;;;;5054752;28;20124;-76
2022/03/16 09:17:10;;;;;;;13.73;7.32;;;10.30;99.90;;;;;;5054690;28;20052;-78
2022/03/16 09:19:37;;;;;;;13.32;7.53;;;10.30;99.90;;;;;;5054680;28;20052;-76
2022/03/16 09:22:04;;;;;;;11.90;8.80;;;9.80;99.90;;;;;;5051524;28;20075;-77
2022/03/16 09:24:32;;;;;;;14.63;8.23;;;9.90;99.90;;;;;;5054964;28;20044;-78
2022/03/16 09:26:59;;;;;;;13.00;8.48;;;10.00;99.90;;;;;;5057062;28;20049;-84
2022/03/16 09:29:26;;;;;;;274.73;152.93;;;9.90;99.90;;;;;;5056581;28;20049;-81
2022/03/16 09:31:55;;;;;;;36.88;25.88;;;10.00;99.90;;;;;;5053829;28;20487;-90
2022/03/16 09:34:24;;;;;;;12.82;8.27;;;10.00;99.90;;;;;;5054228;28;20486;-81
2022/03/16 09:36:51;;;;;;;10.98;6.85;;;10.00;99.90;;;;;;5054249;28;20045;-82
2022/03/16 09:39:18;;;;;;;10.65;7.15;;;10.10;99.90;;;;;;5054878;28;20067;-85
2022/03/16 09:41:45;;;;;;;13.48;6.93;;;10.10;99.90;;;;;;5054202;28;20052;-84
2022/03/16 09:44:12;;;;;;;14.93;8.93;;;10.10;99.90;;;;;;5055281;28;20054;-83
2022/03/16 09:46:39;;;;;;;13.35;7.35;;;9.90;99.90;;;;;;5054098;28;20106;-82
2022/03/16 09:49:07;;;;;;;17.15;7.03;;;9.80;99.90;;;;;;5054934;28;20131;-83
2022/03/16 09:51:38;;;;;;;15.38;6.82;;;9.90;99.90;;;;;;5054117;28;20041;-79
2022/03/16 09:54:05;;;;;;;11.30;7.70;;;10.00;99.90;;;;;;5054036;28;20188;-79
2022/03/16 09:56:35;;;;;;;16.30;7.80;;;10.00;99.90;;;;;;5053589;28;20140;-82
2022/03/16 09:59:02;;;;;;;13.13;6.72;;;10.10;99.90;;;;;;5053616;28;20053;-79
2022/03/16 10:01:29;;;;;;;14.80;9.38;;;10.30;99.90;;;;;;5052897;28;20107;-79
2022/03/16 10:04:00;;;;;;;14.05;7.20;;;10.40;99.90;;;;;;5053859;28;20487;-76
2022/03/16 10:06:27;;;;;;;13.75;7.30;;;10.50;99.90;;;;;;5053963;28;20433;-81
2022/03/16 10:14:24;;;;;;;14.07;7.38;;;10.60;99.90;;;;;;5053622;28;20056;-77
2022/03/16 10:19:49;;;;;;;17.70;9.00;;;10.30;99.90;;;;;;5041826;28;20056;-78
2022/03/16 10:22:25;;;;;;;15.35;8.13;;;10.10;99.90;;;;;;5053900;28;20080;-82
2022/03/16 10:24:59;;;;;;;15.35;9.63;;;10.20;99.90;;;;;;5057327;28;20068;-87
2022/03/16 10:27:25;;;;;;;13.52;8.48;;;10.30;99.90;;;;;;5057507;28;20049;-81
2022/03/16 10:29:52;;;;;;;17.08;9.02;;;10.30;99.90;;;;;;5053293;28;20049;-79
2022/03/16 10:32:21;;;;;;;17.48;8.57;;;10.50;99.90;;;;;;5054559;28;20049;-79
2022/03/16 10:34:50;;;;;;;18.80;9.18;;;10.60;99.90;;;;;;5054447;28;20060;-78
2022/03/16 10:37:22;;;;;;;124.72;79.85;;;10.60;99.90;;;;;;5037539;28;20041;-77
2022/03/16 10:39:51;;;;;;;46.47;29.13;;;10.80;99.90;;;;;;5060483;28;20095;-77
2022/03/16 10:48:01;;;;;;;14.95;8.70;;;12.00;99.90;;;;;;5064431;28;20051;-78
2022/03/16 10:50:28;;;;;;;19.30;10.57;;;13.10;99.90;;;;;;5082133;28;20025;-80
2022/03/16 10:52:55;;;;;;;22.73;10.75;;;13.60;99.90;;;;;;5075435;28;20049;-79
2022/03/16 10:55:24;;;;;;;21.42;11.07;;;14.80;99.90;;;;;;5074476;28;20483;-77
2022/03/16 10:57:52;;;;;;;19.27;10.13;;;15.80;99.90;;;;;;5075498;28;20048;-78
2022/03/16 11:00:19;;;;;;;20.83;11.05;;;16.70;97.60;;;;;;5078386;28;20056;-78
2022/03/16 11:02:47;;;;;;;15.65;9.10;;;18.00;91.90;;;;;;5078064;28;20063;-80
2022/03/16 11:05:18;;;;;;;18.08;10.23;;;18.30;90.10;;;;;;5079566;28;20075;-78
2022/03/16 11:07:47;;;;;;;17.60;9.23;;;17.80;87.10;;;;;;5072060;28;20056;-76
2022/03/16 11:10:14;;;;;;;20.20;10.88;;;17.50;88.10;;;;;;5078571;28;20049;-78
2022/03/16 11:15:28;;;;;;;17.83;9.40;;;21.60;75.00;;;;;;5081154;28;20031;-79
2022/03/16 11:17:55;;;;;;;17.23;10.02;;;22.20;69.00;;;;;;5081863;28;20029;-80
2022/03/16 11:20:22;;;;;;;22.83;12.38;;;21.90;66.90;;;;;;5081582;28;20063;-79
2022/03/16 11:25:55;;;;;;;48.40;30.10;;;22.70;63.30;;;;;;5056237;28;20574;-83
2022/03/16 11:28:35;;;;;;;36.60;24.05;;;22.80;61.60;;;;;;5062114;28;20106;-83
2022/03/16 11:31:03;;;;;;;36.25;15.07;;;22.80;61.50;;;;;;5062626;28;20059;-78
2022/03/16 11:33:29;;;;;;;22.02;12.30;;;23.00;60.90;;;;;;5056620;28;20405;-79
2022/03/16 11:35:57;;;;;;;22.70;12.93;;;22.50;59.40;;;;;;5056743;28;20103;-78
2022/03/16 11:38:24;;;;;;;27.10;13.13;;;22.90;59.30;;;;;;5056606;28;20103;-79
2022/03/16 11:40:52;;;;;;;20.88;11.90;;;22.90;58.90;;;;;;5056269;28;20049;-79
2022/03/16 11:43:21;;;;;;;20.90;12.88;;;22.80;58.70;;;;;;5056592;28;20107;-79
2022/03/16 11:45:51;;;;;;;22.40;11.85;;;23.10;58.90;;;;;;5055931;28;20495;-79
2022/03/16 11:48:40;;;;;;;21.92;12.57;;;23.50;57.10;;;;;;5056378;28;20415;-79
2022/03/16 11:51:16;;;;;;;20.20;13.57;;;23.50;58.50;;;;;;5056606;28;20045;-79
2022/03/16 11:54:07;;;;;;;20.35;11.40;;;24.00;57.90;;;;;;5056624;28;20056;-79
2022/03/16 11:56:48;;;;;;;18.13;11.70;;;23.90;57.10;;;;;;5056152;28;20491;-79
2022/03/16 11:59:32;;;;;;;19.27;10.87;;;24.00;56.80;;;;;;5056817;28;20053;-79
2022/03/16 12:02:07;;;;;;;20.25;11.88;;;24.50;56.00;;;;;;5056294;28;20053;-79
2022/03/16 12:04:38;;;;;;;23.10;13.82;;;24.10;55.50;;;;;;5056252;28;20051;-79
2022/03/16 12:07:09;;;;;;;18.80;9.85;;;24.20;56.40;;;;;;5056314;28;20045;-78
2022/03/16 12:09:38;;;;;;;18.90;11.32;;;23.70;56.20;;;;;;5056334;28;20052;-79
2022/03/16 12:15:03;;;;;;;16.90;11.05;;;23.80;56.70;;;;;;5057102;28;20107;-81
2022/03/16 12:17:30;;;;;;;21.80;13.05;;;24.20;55.60;;;;;;5056480;28;20103;-79
2022/03/16 12:20:14;;;;;;;18.73;11.35;;;23.70;55.80;;;;;;5055964;28;20482;-80
2022/03/16 12:22:46;;;;;;;19.65;11.90;;;24.10;56.10;;;;;;5056664;28;20048;-79
2022/03/16 12:25:33;;;;;;;19.70;12.10;;;24.30;55.20;;;;;;5060037;28;20132;-80
2022/03/16 12:30:48;;;;;;;15.88;11.00;;;24.30;55.80;;;;;;5055727;28;20071;-81
2022/03/16 12:33:19;;;;;;;20.35;12.00;;;23.80;56.10;;;;;;5055907;28;20118;-79
2022/03/16 12:35:48;;;;;;;;;;;24.20;55.70;;;;;;5055313;28;20080;-81
2022/03/16 12:38:20;;;;;;;23.10;11.60;;;24.60;55.20;;;;;;5055328;28;19924;-78
2022/03/16 12:43:32;;;;;;;15.85;10.00;;;23.90;55.70;;;;;;5054825;28;20505;-79
2022/03/16 12:46:09;;;;;;;14.55;9.35;;;23.30;56.10;;;;;;5054272;28;20048;-79
2022/03/16 12:48:37;;;;;;;13.93;9.45;;;23.50;57.10;;;;;;5054443;28;20103;-79
2022/03/16 12:51:05;;;;;;;12.45;9.00;;;23.10;57.10;;;;;;5055550;28;20057;-78
2022/03/16 12:53:39;;;;;;;17.63;10.20;;;23.40;57.00;;;;;;5055181;28;20051;-79
2022/03/16 12:56:10;;;;;;;16.02;9.63;;;23.30;57.30;;;;;;5054933;28;20045;-77
2022/03/16 12:58:37;;;;;;;14.43;10.02;;;23.10;57.40;;;;;;5035453;28;20061;-78
2022/03/16 13:01:04;;;;;;;15.95;10.60;;;23.20;57.40;;;;;;5053351;28;20048;-78
2022/03/16 13:03:30;;;;;;;16.02;10.68;;;23.40;57.30;;;;;;5055307;28;20119;-78
2022/03/16 13:05:57;;;;;;;13.07;9.82;;;23.50;56.60;;;;;;5055243;28;20091;-78
2022/03/16 13:08:26;;;;;;;15.15;10.63;;;23.20;56.20;;;;;;5055277;28;20053;-77
2022/03/16 13:11:16;;;;;;;12.98;9.57;;;22.90;57.00;;;;;;5054826;28;20061;-84
2022/03/16 13:13:47;;;;;;;22.67;15.73;;;22.60;57.80;;;;;;5039259;28;20045;-79